This is the latest recevied weather packets stored in our database for station/object E70ARA-3. If no packets are shown the sender has not sent any weather packets the latest 10 day(s).
| Time | Temp. | Humidity | Pressure | Rain* | Wind** | Luminosity | Snow |
|---|---|---|---|---|---|---|---|
| 1777374766 | 28.33° C | 24% | 1026.7 hPa | - | - | - | - |
| 1777373866 | 28.89° C | 23% | 1026.9 hPa | - | - | - | - |
| 1777372966 | 28.33° C | 23% | 1027.2 hPa | - | - | - | - |
| 1777372065 | 28.89° C | 21% | 1027.4 hPa | - | - | - | - |
| 1777371165 | 28.33° C | 25% | 1027.6 hPa | - | - | - | - |
| 1777370265 | 28.89° C | 25% | 1027.8 hPa | - | - | - | - |
| 1777369365 | 27.22° C | 26% | 1028.2 hPa | - | - | - | - |
| 1777368465 | 28.33° C | 24% | 1028.4 hPa | - | - | - | - |
| 1777367564 | 28.89° C | 24% | 1028.7 hPa | - | - | - | - |
| 1777366664 | 26.67° C | 28% | 1028.8 hPa | - | - | - | - |
| 1777365763 | 27.78° C | 26% | 1029 hPa | - | - | - | - |
| 1777364863 | 26.67° C | 29% | 1029.2 hPa | - | - | - | - |
| 1777363962 | 25° C | 31% | 1029.4 hPa | - | - | - | - |
| 1777363061 | 25° C | 31% | 1029.4 hPa | - | - | - | - |
| 1777362164 | 23.89° C | 34% | 1029.6 hPa | - | - | - | - |
| 1777361264 | 23.33° C | 36% | 1029.7 hPa | - | - | - | - |
| 1777360364 | 21.67° C | 39% | 1029.9 hPa | - | - | - | - |
| 1777359464 | 21.11° C | 39% | 1030 hPa | - | - | - | - |
| 1777358563 | 20° C | 42% | 1030.1 hPa | - | - | - | - |
| 1777357663 | 20° C | 42% | 1030.1 hPa | - | - | - | - |
| 1777356763 | 18.33° C | 45% | 1030.4 hPa | - | - | - | - |
| 1777355863 | 17.22° C | 47% | 1030.5 hPa | - | - | - | - |
| 1777354963 | 15.56° C | 52% | 1030.7 hPa | - | - | - | - |
| 1777354062 | 13.89° C | 58% | 1030.7 hPa | - | - | - | - |
| 1777353162 | 10° C | 71% | 1030.9 hPa | - | - | - | - |
* Rain since midnight (hover to see other rain measurements)
** Current wind speed in m/s (hover to see current wind gust speed)